Terminal Aerodrome Forecast
Issued by NWS St Louis, MO

Home | Current Version | Previous Version | Text Only | Print | Product List | Glossary On
Versions: 1 2 3 4 5 6 7 8 9 10 11 12 13 14 15 16 17 18 19 20 21 22 23 24 25 26 27
000
FTUS43 KLSX 241502 AAA
TAFSTL
TAF AMD
KSTL 241502Z 2415/2518 18008KT P6SM SCT060 BKN150
     FM242000 19008KT P6SM VCTS BKN050CB
     FM250000 17007KT P6SM BKN150
     FM250900 17007KT P6SM VCTS BKN060CB=

USA.gov is the U.S. government's official web portal to all federal, state and local government web resources and services.